sensor_id;sensor_type;location;lat;lon;timestamp;temperature;humidity
5280;DHT22;2663;53.588;10.010;2023-04-01T00:01:23;12.20;99.90
5280;DHT22;2663;53.588;10.010;2023-04-01T00:03:50;12.20;99.90
5280;DHT22;2663;53.588;10.010;2023-04-01T00:06:18;12.20;99.90
5280;DHT22;2663;53.588;10.010;2023-04-01T00:08:45;12.20;99.90
5280;DHT22;2663;53.588;10.010;2023-04-01T00:11:12;12.20;99.90
5280;DHT22;2663;53.588;10.010;2023-04-01T00:13:39;12.10;99.90
5280;DHT22;2663;53.588;10.010;2023-04-01T00:16:07;12.10;99.90
5280;DHT22;2663;53.588;10.010;2023-04-01T00:18:46;12.10;99.90
5280;DHT22;2663;53.588;10.010;2023-04-01T00:21:16;12.10;99.90
5280;DHT22;2663;53.588;10.010;2023-04-01T00:23:43;12.00;99.90
5280;DHT22;2663;53.588;10.010;2023-04-01T00:26:10;12.00;99.90
5280;DHT22;2663;53.588;10.010;2023-04-01T00:28:39;11.90;99.90
5280;DHT22;2663;53.588;10.010;2023-04-01T00:31:07;12.00;99.90
5280;DHT22;2663;53.588;10.010;2023-04-01T00:33:34;12.00;99.90
5280;DHT22;2663;53.588;10.010;2023-04-01T00:36:11;12.10;99.90
5280;DHT22;2663;53.588;10.010;2023-04-01T00:38:39;12.00;99.90
5280;DHT22;2663;53.588;10.010;2023-04-01T00:41:07;12.00;99.90
5280;DHT22;2663;53.588;10.010;2023-04-01T00:43:34;12.10;99.90
5280;DHT22;2663;53.588;10.010;2023-04-01T00:46:01;12.00;99.90
5280;DHT22;2663;53.588;10.010;2023-04-01T00:48:31;12.00;99.90
5280;DHT22;2663;53.588;10.010;2023-04-01T00:51:02;12.00;99.90
5280;DHT22;2663;53.588;10.010;2023-04-01T00:53:31;11.90;99.90
5280;DHT22;2663;53.588;10.010;2023-04-01T00:58:32;11.90;99.90
5280;DHT22;2663;53.588;10.010;2023-04-01T01:01:00;11.90;99.90
5280;DHT22;2663;53.588;10.010;2023-04-01T01:03:27;11.80;99.90
5280;DHT22;2663;53.588;10.010;2023-04-01T01:06:11;11.90;99.90
5280;DHT22;2663;53.588;10.010;2023-04-01T01:11:43;11.80;99.90
5280;DHT22;2663;53.588;10.010;2023-04-01T01:17:15;11.90;99.90
5280;DHT22;2663;53.588;10.010;2023-04-01T01:23:06;12.00;99.90
5280;DHT22;2663;53.588;10.010;2023-04-01T01:31:08;11.90;99.90
5280;DHT22;2663;53.588;10.010;2023-04-01T01:36:09;11.90;99.90
5280;DHT22;2663;53.588;10.010;2023-04-01T01:38:39;11.90;99.90
5280;DHT22;2663;53.588;10.010;2023-04-01T01:41:07;11.90;99.90
5280;DHT22;2663;53.588;10.010;2023-04-01T01:43:43;11.90;99.90
5280;DHT22;2663;53.588;10.010;2023-04-01T01:46:16;11.90;99.90
5280;DHT22;2663;53.588;10.010;2023-04-01T01:48:44;11.90;99.90
5280;DHT22;2663;53.588;10.010;2023-04-01T01:51:12;11.90;99.90
5280;DHT22;2663;53.588;10.010;2023-04-01T01:53:38;11.90;99.90
5280;DHT22;2663;53.588;10.010;2023-04-01T01:56:05;11.90;99.90
5280;DHT22;2663;53.588;10.010;2023-04-01T01:58:54;11.90;99.90
5280;DHT22;2663;53.588;10.010;2023-04-01T02:01:27;11.90;99.90
5280;DHT22;2663;53.588;10.010;2023-04-01T02:03:55;11.90;99.90
5280;DHT22;2663;53.588;10.010;2023-04-01T02:06:25;11.90;99.90
5280;DHT22;2663;53.588;10.010;2023-04-01T02:08:59;11.90;99.90
5280;DHT22;2663;53.588;10.010;2023-04-01T02:11:30;11.90;99.90
5280;DHT22;2663;53.588;10.010;2023-04-01T02:14:04;11.90;99.90
5280;DHT22;2663;53.588;10.010;2023-04-01T02:19:10;11.90;99.90
5280;DHT22;2663;53.588;10.010;2023-04-01T02:21:40;11.90;99.90
5280;DHT22;2663;53.588;10.010;2023-04-01T02:24:11;11.90;99.90
5280;DHT22;2663;53.588;10.010;2023-04-01T02:26:39;11.90;99.90
5280;DHT22;2663;53.588;10.010;2023-04-01T02:29:06;11.90;99.90
5280;DHT22;2663;53.588;10.010;2023-04-01T02:31:34;11.90;99.90
5280;DHT22;2663;53.588;10.010;2023-04-01T02:34:02;11.90;99.90
5280;DHT22;2663;53.588;10.010;2023-04-01T02:36:29;11.90;99.90
5280;DHT22;2663;53.588;10.010;2023-04-01T02:38:57;12.00;99.90
5280;DHT22;2663;53.588;10.010;2023-04-01T02:41:28;11.90;99.90
5280;DHT22;2663;53.588;10.010;2023-04-01T02:43:55;11.90;99.90
5280;DHT22;2663;53.588;10.010;2023-04-01T02:46:24;11.90;99.90
5280;DHT22;2663;53.588;10.010;2023-04-01T02:48:51;11.90;99.90
5280;DHT22;2663;53.588;10.010;2023-04-01T02:51:17;12.00;99.90
5280;DHT22;2663;53.588;10.010;2023-04-01T02:53:44;11.90;99.90
5280;DHT22;2663;53.588;10.010;2023-04-01T02:56:11;12.00;99.90
5280;DHT22;2663;53.588;10.010;2023-04-01T02:58:37;12.00;99.90
5280;DHT22;2663;53.588;10.010;2023-04-01T03:01:04;12.00;99.90
5280;DHT22;2663;53.588;10.010;2023-04-01T03:03:31;12.00;99.90
5280;DHT22;2663;53.588;10.010;2023-04-01T03:05:58;12.00;99.90
5280;DHT22;2663;53.588;10.010;2023-04-01T03:08:26;12.00;99.90
5280;DHT22;2663;53.588;10.010;2023-04-01T03:10:53;12.00;99.90
5280;DHT22;2663;53.588;10.010;2023-04-01T03:13:19;11.90;99.90
5280;DHT22;2663;53.588;10.010;2023-04-01T03:15:47;11.90;99.90
5280;DHT22;2663;53.588;10.010;2023-04-01T03:18:14;11.90;99.90
5280;DHT22;2663;53.588;10.010;2023-04-01T03:20:41;12.00;99.90
5280;DHT22;2663;53.588;10.010;2023-04-01T03:23:09;12.00;99.90
5280;DHT22;2663;53.588;10.010;2023-04-01T03:25:35;12.10;99.90
5280;DHT22;2663;53.588;10.010;2023-04-01T03:28:02;12.10;99.90
5280;DHT22;2663;53.588;10.010;2023-04-01T03:30:29;12.00;99.90
5280;DHT22;2663;53.588;10.010;2023-04-01T03:32:58;12.00;99.90
5280;DHT22;2663;53.588;10.010;2023-04-01T03:35:27;12.00;99.90
5280;DHT22;2663;53.588;10.010;2023-04-01T03:37:54;12.00;99.90
5280;DHT22;2663;53.588;10.010;2023-04-01T03:40:21;12.00;99.90
5280;DHT22;2663;53.588;10.010;2023-04-01T03:42:48;12.00;99.90
5280;DHT22;2663;53.588;10.010;2023-04-01T03:45:15;11.90;99.90
5280;DHT22;2663;53.588;10.010;2023-04-01T03:47:42;12.00;99.90
5280;DHT22;2663;53.588;10.010;2023-04-01T03:50:09;12.00;99.90
5280;DHT22;2663;53.588;10.010;2023-04-01T03:52:36;12.00;99.90
5280;DHT22;2663;53.588;10.010;2023-04-01T03:55:03;12.20;99.90
5280;DHT22;2663;53.588;10.010;2023-04-01T03:57:33;12.10;99.90
5280;DHT22;2663;53.588;10.010;2023-04-01T04:00:00;12.10;99.90
5280;DHT22;2663;53.588;10.010;2023-04-01T04:02:26;12.00;99.90
5280;DHT22;2663;53.588;10.010;2023-04-01T04:04:53;12.10;99.90
5280;DHT22;2663;53.588;10.010;2023-04-01T04:07:19;12.10;99.90
5280;DHT22;2663;53.588;10.010;2023-04-01T04:09:46;12.00;99.90
5280;DHT22;2663;53.588;10.010;2023-04-01T04:12:14;12.10;99.90
5280;DHT22;2663;53.588;10.010;2023-04-01T04:14:40;12.00;99.90
5280;DHT22;2663;53.588;10.010;2023-04-01T04:17:09;11.90;99.90
5280;DHT22;2663;53.588;10.010;2023-04-01T04:19:40;11.90;99.90
5280;DHT22;2663;53.588;10.010;2023-04-01T04:22:06;11.90;99.90
5280;DHT22;2663;53.588;10.010;2023-04-01T04:24:34;11.90;99.90
5280;DHT22;2663;53.588;10.010;2023-04-01T04:27:02;11.90;99.90
5280;DHT22;2663;53.588;10.010;2023-04-01T04:29:29;11.90;99.90
5280;DHT22;2663;53.588;10.010;2023-04-01T04:31:56;11.90;99.90
5280;DHT22;2663;53.588;10.010;2023-04-01T04:34:23;12.00;99.90
5280;DHT22;2663;53.588;10.010;2023-04-01T04:36:50;12.00;99.90
5280;DHT22;2663;53.588;10.010;2023-04-01T04:39:17;11.90;99.90
5280;DHT22;2663;53.588;10.010;2023-04-01T04:41:44;11.90;99.90
5280;DHT22;2663;53.588;10.010;2023-04-01T04:44:10;11.90;99.90
5280;DHT22;2663;53.588;10.010;2023-04-01T04:46:37;12.00;99.90
5280;DHT22;2663;53.588;10.010;2023-04-01T04:49:06;12.00;99.90
5280;DHT22;2663;53.588;10.010;2023-04-01T04:51:33;12.00;99.90
5280;DHT22;2663;53.588;10.010;2023-04-01T04:54:02;11.90;99.90
5280;DHT22;2663;53.588;10.010;2023-04-01T04:56:29;11.90;99.90
5280;DHT22;2663;53.588;10.010;2023-04-01T04:58:57;11.90;99.90
5280;DHT22;2663;53.588;10.010;2023-04-01T05:01:25;11.90;99.90
5280;DHT22;2663;53.588;10.010;2023-04-01T05:03:51;11.90;99.90
5280;DHT22;2663;53.588;10.010;2023-04-01T05:06:20;11.90;99.90
5280;DHT22;2663;53.588;10.010;2023-04-01T05:08:49;11.80;99.90
5280;DHT22;2663;53.588;10.010;2023-04-01T05:11:19;11.80;99.90
5280;DHT22;2663;53.588;10.010;2023-04-01T05:13:47;11.90;99.90
5280;DHT22;2663;53.588;10.010;2023-04-01T05:16:17;11.80;99.90
5280;DHT22;2663;53.588;10.010;2023-04-01T05:18:44;11.70;99.90
5280;DHT22;2663;53.588;10.010;2023-04-01T05:21:13;11.70;99.90
5280;DHT22;2663;53.588;10.010;2023-04-01T05:23:41;11.50;99.90
5280;DHT22;2663;53.588;10.010;2023-04-01T05:26:11;11.40;99.90
5280;DHT22;2663;53.588;10.010;2023-04-01T05:28:38;10.80;99.90
5280;DHT22;2663;53.588;10.010;2023-04-01T05:31:06;10.40;99.90
5280;DHT22;2663;53.588;10.010;2023-04-01T05:33:33;10.20;99.90
5280;DHT22;2663;53.588;10.010;2023-04-01T05:36:11;10.10;99.90
5280;DHT22;2663;53.588;10.010;2023-04-01T05:38:39;9.90;99.90
5280;DHT22;2663;53.588;10.010;2023-04-01T05:41:06;9.90;99.90
5280;DHT22;2663;53.588;10.010;2023-04-01T05:43:35;9.70;99.90
5280;DHT22;2663;53.588;10.010;2023-04-01T05:46:02;9.70;99.90
5280;DHT22;2663;53.588;10.010;2023-04-01T05:48:29;9.60;99.90
5280;DHT22;2663;53.588;10.010;2023-04-01T05:50:55;9.50;99.90
5280;DHT22;2663;53.588;10.010;2023-04-01T05:53:22;9.50;99.90
5280;DHT22;2663;53.588;10.010;2023-04-01T05:55:49;9.40;99.90
5280;DHT22;2663;53.588;10.010;2023-04-01T05:58:15;9.30;99.90
5280;DHT22;2663;53.588;10.010;2023-04-01T06:00:42;9.20;99.90
5280;DHT22;2663;53.588;10.010;2023-04-01T06:03:09;9.30;99.90
5280;DHT22;2663;53.588;10.010;2023-04-01T06:05:41;9.10;99.90
5280;DHT22;2663;53.588;10.010;2023-04-01T06:08:16;9.00;99.90
5280;DHT22;2663;53.588;10.010;2023-04-01T06:19:17;8.90;99.90
5280;DHT22;2663;53.588;10.010;2023-04-01T06:21:56;8.90;99.90
5280;DHT22;2663;53.588;10.010;2023-04-01T06:27:52;7.60;99.90
5280;DHT22;2663;53.588;10.010;2023-04-01T06:30:42;8.90;99.90
5280;DHT22;2663;53.588;10.010;2023-04-01T06:33:43;8.80;99.90
5280;DHT22;2663;53.588;10.010;2023-04-01T06:36:23;8.60;99.90
5280;DHT22;2663;53.588;10.010;2023-04-01T06:39:19;8.50;99.90
5280;DHT22;2663;53.588;10.010;2023-04-01T06:56:03;8.30;99.90
5280;DHT22;2663;53.588;10.010;2023-04-01T06:58:44;8.40;99.90
5280;DHT22;2663;53.588;10.010;2023-04-01T07:01:18;8.50;99.90
5280;DHT22;2663;53.588;10.010;2023-04-01T07:03:59;8.60;99.90
5280;DHT22;2663;53.588;10.010;2023-04-01T07:06:31;8.60;99.90
5280;DHT22;2663;53.588;10.010;2023-04-01T07:09:02;8.40;99.90
5280;DHT22;2663;53.588;10.010;2023-04-01T07:11:34;8.60;99.90
5280;DHT22;2663;53.588;10.010;2023-04-01T07:14:21;8.50;99.90
5280;DHT22;2663;53.588;10.010;2023-04-01T07:16:53;8.40;99.90
5280;DHT22;2663;53.588;10.010;2023-04-01T07:19:34;8.30;99.90
5280;DHT22;2663;53.588;10.010;2023-04-01T07:22:33;8.40;99.90
5280;DHT22;2663;53.588;10.010;2023-04-01T07:25:11;8.40;99.90
5280;DHT22;2663;53.588;10.010;2023-04-01T07:27:38;8.40;99.90
5280;DHT22;2663;53.588;10.010;2023-04-01T07:30:16;8.60;99.90
5280;DHT22;2663;53.588;10.010;2023-04-01T07:33:04;8.40;99.90
5280;DHT22;2663;53.588;10.010;2023-04-01T07:38:35;8.10;99.90
5280;DHT22;2663;53.588;10.010;2023-04-01T07:41:23;8.00;99.90
5280;DHT22;2663;53.588;10.010;2023-04-01T07:44:15;8.00;99.90
5280;DHT22;2663;53.588;10.010;2023-04-01T07:46:59;7.90;99.90
5280;DHT22;2663;53.588;10.010;2023-04-01T07:49:43;7.90;99.90
5280;DHT22;2663;53.588;10.010;2023-04-01T07:52:29;7.90;99.90
5280;DHT22;2663;53.588;10.010;2023-04-01T07:55:50;8.00;99.90
5280;DHT22;2663;53.588;10.010;2023-04-01T07:58:25;7.90;99.90
5280;DHT22;2663;53.588;10.010;2023-04-01T08:01:05;7.90;99.90
5280;DHT22;2663;53.588;10.010;2023-04-01T08:06:50;7.70;99.90
5280;DHT22;2663;53.588;10.010;2023-04-01T08:09:33;7.70;99.90
5280;DHT22;2663;53.588;10.010;2023-04-01T08:12:21;7.70;99.90
5280;DHT22;2663;53.588;10.010;2023-04-01T08:20:51;7.70;99.90
5280;DHT22;2663;53.588;10.010;2023-04-01T08:23:24;7.80;99.90
5280;DHT22;2663;53.588;10.010;2023-04-01T08:26:05;7.70;99.90
5280;DHT22;2663;53.588;10.010;2023-04-01T08:28:42;7.80;99.90
5280;DHT22;2663;53.588;10.010;2023-04-01T08:31:30;7.90;99.90
5280;DHT22;2663;53.588;10.010;2023-04-01T08:33:58;7.80;99.90
5280;DHT22;2663;53.588;10.010;2023-04-01T08:36:33;7.90;99.90
5280;DHT22;2663;53.588;10.010;2023-04-01T08:39:16;7.90;99.90
5280;DHT22;2663;53.588;10.010;2023-04-01T08:42:03;8.10;99.90
5280;DHT22;2663;53.588;10.010;2023-04-01T08:44:57;8.20;99.90
5280;DHT22;2663;53.588;10.010;2023-04-01T08:51:13;8.10;99.90
5280;DHT22;2663;53.588;10.010;2023-04-01T08:53:58;8.10;99.90
5280;DHT22;2663;53.588;10.010;2023-04-01T09:05:03;7.90;99.90
5280;DHT22;2663;53.588;10.010;2023-04-01T09:07:40;7.90;99.90
5280;DHT22;2663;53.588;10.010;2023-04-01T09:10:31;7.90;99.90
5280;DHT22;2663;53.588;10.010;2023-04-01T09:22:12;8.00;99.90
5280;DHT22;2663;53.588;10.010;2023-04-01T09:33:46;8.30;99.90
5280;DHT22;2663;53.588;10.010;2023-04-01T09:36:38;8.10;99.90
5280;DHT22;2663;53.588;10.010;2023-04-01T09:44:35;8.00;99.90
5280;DHT22;2663;53.588;10.010;2023-04-01T09:47:27;8.10;99.90
5280;DHT22;2663;53.588;10.010;2023-04-01T09:50:30;8.10;99.90
5280;DHT22;2663;53.588;10.010;2023-04-01T09:53:14;8.10;99.90
5280;DHT22;2663;53.588;10.010;2023-04-01T10:13:02;8.40;99.90
5280;DHT22;2663;53.588;10.010;2023-04-01T10:21:36;8.20;99.90
5280;DHT22;2663;53.588;10.010;2023-04-01T10:24:40;8.40;99.90
5280;DHT22;2663;53.588;10.010;2023-04-01T10:27:28;8.40;99.90
5280;DHT22;2663;53.588;10.010;2023-04-01T10:30:23;8.60;99.90
5280;DHT22;2663;53.588;10.010;2023-04-01T10:33:26;8.80;99.90
5280;DHT22;2663;53.588;10.010;2023-04-01T10:36:07;8.70;99.90
5280;DHT22;2663;53.588;10.010;2023-04-01T10:38:58;8.70;99.90
5280;DHT22;2663;53.588;10.010;2023-04-01T10:51:01;8.40;99.90
5280;DHT22;2663;53.588;10.010;2023-04-01T10:53:43;8.40;99.90
5280;DHT22;2663;53.588;10.010;2023-04-01T10:59:36;8.50;99.90
5280;DHT22;2663;53.588;10.010;2023-04-01T11:08:25;8.40;99.90
5280;DHT22;2663;53.588;10.010;2023-04-01T11:23:22;8.40;99.90
5280;DHT22;2663;53.588;10.010;2023-04-01T11:29:00;8.30;99.90
5280;DHT22;2663;53.588;10.010;2023-04-01T11:31:50;8.30;99.90
5280;DHT22;2663;53.588;10.010;2023-04-01T11:46:00;8.20;99.90
5280;DHT22;2663;53.588;10.010;2023-04-01T11:48:37;8.10;99.90
5280;DHT22;2663;53.588;10.010;2023-04-01T11:54:04;8.10;99.90
5280;DHT22;2663;53.588;10.010;2023-04-01T11:56:53;8.10;99.90
5280;DHT22;2663;53.588;10.010;2023-04-01T12:08:01;7.90;99.90
5280;DHT22;2663;53.588;10.010;2023-04-01T12:10:59;7.90;99.90
5280;DHT22;2663;53.588;10.010;2023-04-01T12:16:39;7.70;99.90
5280;DHT22;2663;53.588;10.010;2023-04-01T12:19:26;7.80;99.90
5280;DHT22;2663;53.588;10.010;2023-04-01T12:22:29;7.80;99.90
5280;DHT22;2663;53.588;10.010;2023-04-01T12:25:16;7.60;99.90
5280;DHT22;2663;53.588;10.010;2023-04-01T12:28:15;7.60;99.90
5280;DHT22;2663;53.588;10.010;2023-04-01T12:36:18;7.60;99.90
5280;DHT22;2663;53.588;10.010;2023-04-01T12:44:52;7.80;99.90
5280;DHT22;2663;53.588;10.010;2023-04-01T12:51:09;7.80;99.90
5280;DHT22;2663;53.588;10.010;2023-04-01T13:05:25;7.40;99.90
5280;DHT22;2663;53.588;10.010;2023-04-01T13:08:10;7.50;99.90
5280;DHT22;2663;53.588;10.010;2023-04-01T13:10:50;7.50;99.90
5280;DHT22;2663;53.588;10.010;2023-04-01T13:13:44;7.60;99.90
5280;DHT22;2663;53.588;10.010;2023-04-01T13:16:19;7.50;99.90
5280;DHT22;2663;53.588;10.010;2023-04-01T13:19:21;7.40;99.90
5280;DHT22;2663;53.588;10.010;2023-04-01T13:27:33;7.40;99.90
5280;DHT22;2663;53.588;10.010;2023-04-01T13:30:27;7.40;99.90
5280;DHT22;2663;53.588;10.010;2023-04-01T13:33:26;7.00;99.90
5280;DHT22;2663;53.588;10.010;2023-04-01T13:36:13;7.10;99.90
5280;DHT22;2663;53.588;10.010;2023-04-01T13:39:07;7.10;99.90
5280;DHT22;2663;53.588;10.010;2023-04-01T13:44:30;7.50;99.90
5280;DHT22;2663;53.588;10.010;2023-04-01T13:47:33;7.50;99.90
5280;DHT22;2663;53.588;10.010;2023-04-01T14:04:10;7.10;99.90
5280;DHT22;2663;53.588;10.010;2023-04-01T14:07:02;7.10;99.90
5280;DHT22;2663;53.588;10.010;2023-04-01T14:23:25;7.40;99.90
5280;DHT22;2663;53.588;10.010;2023-04-01T14:37:58;8.70;99.90
5280;DHT22;2663;53.588;10.010;2023-04-01T14:43:38;7.30;99.90
5280;DHT22;2663;53.588;10.010;2023-04-01T14:46:19;7.30;99.90
5280;DHT22;2663;53.588;10.010;2023-04-01T14:49:04;7.20;99.90
5280;DHT22;2663;53.588;10.010;2023-04-01T14:51:40;7.30;99.90
5280;DHT22;2663;53.588;10.010;2023-04-01T14:54:32;7.40;99.90
5280;DHT22;2663;53.588;10.010;2023-04-01T14:57:11;7.40;99.90
5280;DHT22;2663;53.588;10.010;2023-04-01T14:59:51;7.40;99.90
5280;DHT22;2663;53.588;10.010;2023-04-01T15:02:43;7.40;99.90
5280;DHT22;2663;53.588;10.010;2023-04-01T15:08:50;7.20;99.90
5280;DHT22;2663;53.588;10.010;2023-04-01T15:17:45;7.10;99.90
5280;DHT22;2663;53.588;10.010;2023-04-01T15:20:39;7.20;99.90
5280;DHT22;2663;53.588;10.010;2023-04-01T15:23:19;7.30;99.90
5280;DHT22;2663;53.588;10.010;2023-04-01T15:32:29;7.00;99.90
5280;DHT22;2663;53.588;10.010;2023-04-01T15:45:58;6.80;99.90
5280;DHT22;2663;53.588;10.010;2023-04-01T15:48:46;6.70;99.90
5280;DHT22;2663;53.588;10.010;2023-04-01T15:57:17;6.70;99.90
5280;DHT22;2663;53.588;10.010;2023-04-01T16:08:40;8.40;99.90
5280;DHT22;2663;53.588;10.010;2023-04-01T16:20:25;6.50;99.90
5280;DHT22;2663;53.588;10.010;2023-04-01T16:23:08;6.40;99.90
5280;DHT22;2663;53.588;10.010;2023-04-01T16:25:41;6.40;99.90
5280;DHT22;2663;53.588;10.010;2023-04-01T16:28:17;6.60;99.90
5280;DHT22;2663;53.588;10.010;2023-04-01T16:31:03;6.40;99.90
5280;DHT22;2663;53.588;10.010;2023-04-01T16:33:46;6.40;99.90
5280;DHT22;2663;53.588;10.010;2023-04-01T16:36:26;6.40;99.90
5280;DHT22;2663;53.588;10.010;2023-04-01T16:45:00;6.60;99.90
5280;DHT22;2663;53.588;10.010;2023-04-01T16:47:39;6.70;99.90
5280;DHT22;2663;53.588;10.010;2023-04-01T16:52:57;6.50;99.90
5280;DHT22;2663;53.588;10.010;2023-04-01T17:01:23;6.40;99.90
5280;DHT22;2663;53.588;10.010;2023-04-01T17:04:07;6.30;99.90
5280;DHT22;2663;53.588;10.010;2023-04-01T17:15:23;6.20;99.90
5280;DHT22;2663;53.588;10.010;2023-04-01T17:23:52;6.60;99.90
5280;DHT22;2663;53.588;10.010;2023-04-01T17:26:28;6.60;99.90
5280;DHT22;2663;53.588;10.010;2023-04-01T17:29:24;6.40;99.90
5280;DHT22;2663;53.588;10.010;2023-04-01T17:32:18;6.20;99.90
5280;DHT22;2663;53.588;10.010;2023-04-01T17:35:06;6.10;99.90
5280;DHT22;2663;53.588;10.010;2023-04-01T17:43:00;6.10;99.90
5280;DHT22;2663;53.588;10.010;2023-04-01T17:48:29;6.10;99.90
5280;DHT22;2663;53.588;10.010;2023-04-01T17:51:33;6.00;99.90
5280;DHT22;2663;53.588;10.010;2023-04-01T17:54:21;6.20;99.90
5280;DHT22;2663;53.588;10.010;2023-04-01T17:57:06;6.20;99.90
5280;DHT22;2663;53.588;10.010;2023-04-01T17:59:38;6.20;99.90
5280;DHT22;2663;53.588;10.010;2023-04-01T18:10:24;6.10;99.90
5280;DHT22;2663;53.588;10.010;2023-04-01T18:16:07;6.00;99.90
5280;DHT22;2663;53.588;10.010;2023-04-01T18:19:04;5.80;99.90
5280;DHT22;2663;53.588;10.010;2023-04-01T18:21:43;5.90;99.90
5280;DHT22;2663;53.588;10.010;2023-04-01T18:27:37;6.00;99.90
5280;DHT22;2663;53.588;10.010;2023-04-01T18:30:15;5.90;99.90
5280;DHT22;2663;53.588;10.010;2023-04-01T18:32:44;5.80;99.90
5280;DHT22;2663;53.588;10.010;2023-04-01T18:43:33;5.70;99.90
5280;DHT22;2663;53.588;10.010;2023-04-01T18:46:21;5.70;99.90
5280;DHT22;2663;53.588;10.010;2023-04-01T18:51:37;5.60;99.90
5280;DHT22;2663;53.588;10.010;2023-04-01T18:54:20;5.50;99.90
5280;DHT22;2663;53.588;10.010;2023-04-01T18:56:48;5.40;99.90
5280;DHT22;2663;53.588;10.010;2023-04-01T18:59:37;5.50;99.90
5280;DHT22;2663;53.588;10.010;2023-04-01T19:04:57;5.50;99.90
5280;DHT22;2663;53.588;10.010;2023-04-01T19:10:31;5.60;99.90
5280;DHT22;2663;53.588;10.010;2023-04-01T19:16:03;6.00;99.90
5280;DHT22;2663;53.588;10.010;2023-04-01T19:21:45;6.40;99.90
5280;DHT22;2663;53.588;10.010;2023-04-01T19:27:42;5.90;99.90
5280;DHT22;2663;53.588;10.010;2023-04-01T19:30:36;5.60;99.90
5280;DHT22;2663;53.588;10.010;2023-04-01T19:36:10;5.60;99.90
5280;DHT22;2663;53.588;10.010;2023-04-01T19:38:40;5.50;99.90
5280;DHT22;2663;53.588;10.010;2023-04-01T19:41:20;5.50;99.90
5280;DHT22;2663;53.588;10.010;2023-04-01T19:43:58;5.60;99.90
5280;DHT22;2663;53.588;10.010;2023-04-01T19:46:41;5.50;99.90
5280;DHT22;2663;53.588;10.010;2023-04-01T19:49:27;5.50;99.90
5280;DHT22;2663;53.588;10.010;2023-04-01T19:52:18;5.40;99.90
5280;DHT22;2663;53.588;10.010;2023-04-01T19:55:10;5.40;99.90
5280;DHT22;2663;53.588;10.010;2023-04-01T20:00:58;5.20;99.90
5280;DHT22;2663;53.588;10.010;2023-04-01T20:03:48;5.10;99.90
5280;DHT22;2663;53.588;10.010;2023-04-01T20:06:47;4.90;99.90
5280;DHT22;2663;53.588;10.010;2023-04-01T20:09:46;4.80;99.90
5280;DHT22;2663;53.588;10.010;2023-04-01T20:14:58;4.90;99.90
5280;DHT22;2663;53.588;10.010;2023-04-01T20:25:25;5.00;99.90
5280;DHT22;2663;53.588;10.010;2023-04-01T20:28:09;4.90;99.90
5280;DHT22;2663;53.588;10.010;2023-04-01T20:33:36;5.20;99.90
5280;DHT22;2663;53.588;10.010;2023-04-01T20:52:25;4.70;99.90
5280;DHT22;2663;53.588;10.010;2023-04-01T20:55:19;4.80;99.90
5280;DHT22;2663;53.588;10.010;2023-04-01T21:06:27;4.40;99.90
5280;DHT22;2663;53.588;10.010;2023-04-01T21:09:26;4.60;99.90
5280;DHT22;2663;53.588;10.010;2023-04-01T21:12:14;4.50;99.90
5280;DHT22;2663;53.588;10.010;2023-04-01T21:28:52;4.50;99.90
5280;DHT22;2663;53.588;10.010;2023-04-01T21:37:20;4.20;99.90
5280;DHT22;2663;53.588;10.010;2023-04-01T21:45:27;4.40;99.90
5280;DHT22;2663;53.588;10.010;2023-04-01T21:54:07;5.20;99.90
5280;DHT22;2663;53.588;10.010;2023-04-01T22:08:29;4.40;99.90
5280;DHT22;2663;53.588;10.010;2023-04-01T22:11:10;4.40;99.90
5280;DHT22;2663;53.588;10.010;2023-04-01T22:13:48;4.40;99.90
5280;DHT22;2663;53.588;10.010;2023-04-01T22:16:56;4.20;99.90
5280;DHT22;2663;53.588;10.010;2023-04-01T22:19:53;4.20;99.90
5280;DHT22;2663;53.588;10.010;2023-04-01T22:25:30;4.40;99.90
5280;DHT22;2663;53.588;10.010;2023-04-01T22:28:07;4.30;99.90
5280;DHT22;2663;53.588;10.010;2023-04-01T22:30:49;4.10;99.90
5280;DHT22;2663;53.588;10.010;2023-04-01T22:44:52;4.10;99.90
5280;DHT22;2663;53.588;10.010;2023-04-01T22:50:10;4.10;99.90
5280;DHT22;2663;53.588;10.010;2023-04-01T22:52:45;4.00;99.90
5280;DHT22;2663;53.588;10.010;2023-04-01T22:55:24;3.90;99.90
5280;DHT22;2663;53.588;10.010;2023-04-01T22:58:00;3.90;99.90
5280;DHT22;2663;53.588;10.010;2023-04-01T23:00:48;4.00;99.90
5280;DHT22;2663;53.588;10.010;2023-04-01T23:03:17;3.80;99.90
5280;DHT22;2663;53.588;10.010;2023-04-01T23:05:53;3.80;99.90
5280;DHT22;2663;53.588;10.010;2023-04-01T23:08:39;3.70;99.90
5280;DHT22;2663;53.588;10.010;2023-04-01T23:11:11;3.80;99.90
5280;DHT22;2663;53.588;10.010;2023-04-01T23:13:45;3.70;99.90
5280;DHT22;2663;53.588;10.010;2023-04-01T23:16:15;3.60;99.90
5280;DHT22;2663;53.588;10.010;2023-04-01T23:18:56;3.70;99.90
5280;DHT22;2663;53.588;10.010;2023-04-01T23:21:48;3.70;99.90
5280;DHT22;2663;53.588;10.010;2023-04-01T23:24:30;3.80;99.90
5280;DHT22;2663;53.588;10.010;2023-04-01T23:27:08;3.70;99.90
5280;DHT22;2663;53.588;10.010;2023-04-01T23:29:37;3.70;99.90
5280;DHT22;2663;53.588;10.010;2023-04-01T23:32:21;3.70;99.90
5280;DHT22;2663;53.588;10.010;2023-04-01T23:34:53;3.70;99.90
5280;DHT22;2663;53.588;10.010;2023-04-01T23:37:22;3.90;99.90
5280;DHT22;2663;53.588;10.010;2023-04-01T23:39:53;3.80;99.90
5280;DHT22;2663;53.588;10.010;2023-04-01T23:42:32;3.60;99.90
5280;DHT22;2663;53.588;10.010;2023-04-01T23:45:05;3.60;99.90
5280;DHT22;2663;53.588;10.010;2023-04-01T23:47:39;3.70;99.90
5280;DHT22;2663;53.588;10.010;2023-04-01T23:50:13;3.70;99.90
5280;DHT22;2663;53.588;10.010;2023-04-01T23:52:57;3.70;99.90
5280;DHT22;2663;53.588;10.010;2023-04-01T23:55:27;3.70;99.90
5280;DHT22;2663;53.588;10.010;2023-04-01T23:58:12;3.60;99.90
